Time;durP1;ratioP1;P1;durP2;ratioP2;P2;SDS_P1;SDS_P2;PMS_P1;PMS_P2;Temp;Humidity;BMP_temperature;BMP_pressure;BME280_temperature;BME280_humidity;BME280_pressure;Samples;Min_cycle;Max_cycle;Signal;HPM_P1;HPM_P2
2022/03/23 00:00:57;;;;;;;12.23;7.40;;;4.80;82.50;;;;;;4964600;28;20227;-84
2022/03/23 00:03:23;;;;;;;14.77;6.90;;;4.80;82.60;;;;;;4963754;28;20186;-84
2022/03/23 00:05:48;;;;;;;11.37;5.80;;;4.80;83.20;;;;;;4964157;28;20180;-84
2022/03/23 00:08:14;;;;;;;11.10;6.90;;;4.70;85.00;;;;;;4975840;28;20200;-84
2022/03/23 00:10:40;;;;;;;11.40;5.57;;;4.70;86.10;;;;;;4975606;28;20199;-83
2022/03/23 00:13:05;;;;;;;8.63;5.90;;;4.60;85.90;;;;;;4969512;28;20187;-83
2022/03/23 00:15:32;;;;;;;8.00;5.40;;;4.70;85.50;;;;;;4972379;28;20187;-83
2022/03/23 00:17:57;;;;;;;8.93;6.10;;;4.90;83.20;;;;;;4971486;28;20286;-84
2022/03/23 00:20:24;;;;;;;7.60;5.20;;;4.90;81.90;;;;;;4973261;28;20230;-84
2022/03/23 00:22:50;;;;;;;11.07;5.82;;;4.70;82.40;;;;;;4968265;28;20231;-84
2022/03/23 00:25:16;;;;;;;10.35;7.25;;;4.60;84.40;;;;;;4961960;28;20206;-83
2022/03/23 00:27:42;;;;;;;15.80;9.27;;;4.70;84.20;;;;;;4951061;28;20211;-84
2022/03/23 00:30:08;;;;;;;27.10;12.40;;;4.60;84.30;;;;;;4958839;28;20447;-83
2022/03/23 00:32:34;;;;;;;25.30;14.35;;;4.50;84.80;;;;;;4974281;28;20215;-83
2022/03/23 00:35:00;;;;;;;19.77;9.43;;;4.50;85.90;;;;;;4973794;28;20186;-84
2022/03/23 00:37:26;;;;;;;13.88;8.15;;;4.60;85.80;;;;;;4975844;28;20255;-85
2022/03/23 00:39:51;;;;;;;13.70;7.90;;;4.50;85.60;;;;;;4981748;28;20290;-84
2022/03/23 00:42:17;;;;;;;15.40;9.93;;;4.50;86.10;;;;;;4978187;28;20248;-85
2022/03/23 00:44:43;;;;;;;22.67;11.20;;;4.40;86.30;;;;;;4955663;28;20187;-84
2022/03/23 00:47:09;;;;;;;17.13;9.77;;;4.40;86.90;;;;;;4959707;28;20215;-84
2022/03/23 00:49:38;;;;;;;17.83;10.40;;;4.30;87.20;;;;;;4977052;28;20529;-85
2022/03/23 00:52:06;;;;;;;18.20;10.30;;;4.30;87.20;;;;;;4970124;28;20191;-84
2022/03/23 00:54:35;;;;;;;14.43;9.02;;;4.20;86.80;;;;;;4966550;28;20296;-84
2022/03/23 00:57:05;;;;;;;15.68;9.57;;;4.20;87.00;;;;;;4977766;28;20282;-84
2022/03/23 00:59:31;;;;;;;16.42;8.63;;;4.10;87.00;;;;;;4950276;28;20586;-84
2022/03/23 01:01:58;;;;;;;11.73;7.60;;;4.10;87.50;;;;;;4961481;28;20189;-85
2022/03/23 01:04:24;;;;;;;13.50;8.13;;;4.00;88.20;;;;;;4981424;28;20176;-84
2022/03/23 01:06:52;;;;;;;9.82;7.25;;;4.00;89.10;;;;;;4960491;28;20199;-84
2022/03/23 01:09:22;;;;;;;22.38;9.50;;;4.00;90.00;;;;;;4978592;28;20182;-84
2022/03/23 01:11:50;;;;;;;13.20;7.75;;;4.00;90.00;;;;;;4948823;28;20192;-84
2022/03/23 01:14:16;;;;;;;15.20;7.20;;;4.00;90.00;;;;;;4970558;28;20192;-84
2022/03/23 01:16:42;;;;;;;13.98;8.30;;;3.90;90.30;;;;;;4959233;28;20211;-84
2022/03/23 01:19:08;;;;;;;18.10;10.68;;;3.80;91.70;;;;;;4976578;28;20215;-84
2022/03/23 01:21:35;;;;;;;19.30;10.63;;;3.70;92.00;;;;;;4976038;28;20176;-84
2022/03/23 01:24:00;;;;;;;21.85;12.25;;;3.80;91.90;;;;;;4976711;28;20470;-84
2022/03/23 01:26:26;;;;;;;12.07;8.47;;;3.70;91.40;;;;;;4973415;28;20259;-84
2022/03/23 01:28:52;;;;;;;27.42;9.35;;;3.70;91.70;;;;;;4952108;28;22054;-84
2022/03/23 01:31:17;;;;;;;11.63;7.67;;;3.70;92.00;;;;;;4977827;28;20263;-84
2022/03/23 01:33:43;;;;;;;20.57;10.17;;;3.70;92.40;;;;;;4963193;28;20648;-84
2022/03/23 01:36:10;;;;;;;17.93;10.77;;;3.60;92.90;;;;;;4973595;28;20199;-84
2022/03/23 01:38:36;;;;;;;14.93;9.32;;;3.60;93.00;;;;;;4965349;28;20292;-84
2022/03/23 01:41:02;;;;;;;19.33;10.93;;;3.60;93.00;;;;;;4962772;28;20268;-84
2022/03/23 01:43:28;;;;;;;21.33;10.40;;;3.50;93.20;;;;;;4963852;28;20428;-84
2022/03/23 01:45:53;;;;;;;20.27;11.45;;;3.50;93.10;;;;;;4975580;28;20450;-85
2022/03/23 01:48:19;;;;;;;17.63;11.03;;;3.40;93.30;;;;;;4972894;28;20204;-84
2022/03/23 01:50:44;;;;;;;16.40;10.50;;;3.30;93.60;;;;;;4966050;28;20191;-84
2022/03/23 01:53:10;;;;;;;15.13;9.27;;;3.30;93.90;;;;;;4961715;28;20187;-84
2022/03/23 01:55:35;;;;;;;13.57;6.90;;;3.30;94.30;;;;;;4963136;28;20738;-84
2022/03/23 01:58:01;;;;;;;16.23;8.40;;;3.20;94.60;;;;;;4964924;28;20203;-83
2022/03/23 02:00:28;;;;;;;12.13;8.50;;;3.20;94.80;;;;;;4973691;28;20345;-85
2022/03/23 02:02:54;;;;;;;21.77;10.73;;;3.10;94.70;;;;;;4985630;28;20527;-86
2022/03/23 02:05:19;;;;;;;18.20;9.60;;;3.10;95.10;;;;;;4961155;28;20203;-84
2022/03/23 02:07:45;;;;;;;20.30;9.70;;;3.10;95.30;;;;;;4962543;28;20204;-84
2022/03/23 02:10:10;;;;;;;20.23;10.37;;;3.10;96.10;;;;;;4963053;28;20180;-84
2022/03/23 02:12:37;;;;;;;26.43;12.33;;;3.20;96.00;;;;;;4975876;28;20226;-84
2022/03/23 02:15:16;;;;;;;26.05;13.68;;;3.10;96.10;;;;;;4978437;28;20667;-83
2022/03/23 02:17:42;;;;;;;21.25;12.95;;;3.10;96.50;;;;;;4965041;28;20255;-84
2022/03/23 02:20:09;;;;;;;19.90;10.52;;;3.10;97.20;;;;;;4973260;28;20207;-83
2022/03/23 02:22:35;;;;;;;15.43;7.35;;;3.00;97.60;;;;;;4964959;28;20180;-83
2022/03/23 02:25:01;;;;;;;16.33;9.43;;;3.10;97.90;;;;;;4973641;28;20663;-82
2022/03/23 02:27:28;;;;;;;11.50;8.00;;;3.00;98.30;;;;;;4976344;28;20467;-83
2022/03/23 02:29:53;;;;;;;17.48;8.70;;;3.00;98.30;;;;;;4976362;28;20188;-85
2022/03/23 02:32:20;;;;;;;14.67;9.17;;;2.90;98.10;;;;;;4979321;28;20225;-84
2022/03/23 02:34:45;;;;;;;18.70;10.68;;;2.90;97.90;;;;;;4968992;28;20243;-83
2022/03/23 02:37:11;;;;;;;16.63;9.50;;;2.90;97.90;;;;;;4950189;28;20203;-84
2022/03/23 02:39:37;;;;;;;17.47;9.80;;;2.80;98.00;;;;;;4964635;28;20214;-84
2022/03/23 02:42:03;;;;;;;15.83;8.63;;;2.70;98.10;;;;;;4972186;28;21122;-84
2022/03/23 02:44:29;;;;;;;9.38;6.90;;;2.70;98.20;;;;;;4962569;28;20175;-84
2022/03/23 02:46:55;;;;;;;13.57;8.60;;;2.60;98.50;;;;;;4979687;28;20188;-83
2022/03/23 02:49:21;;;;;;;16.63;8.63;;;2.60;99.00;;;;;;4978732;28;20164;-84
2022/03/23 02:51:48;;;;;;;16.00;9.00;;;2.50;99.20;;;;;;4958886;28;20445;-83
2022/03/23 03:03:30;;;;;;;20.00;10.10;;;2.40;99.90;;;;;;4926159;29;20213;-84
2022/03/23 03:05:55;;;;;;;19.58;12.15;;;2.30;99.90;;;;;;4940579;28;20555;-83
2022/03/23 03:11:05;;;;;;;20.25;12.05;;;2.30;99.90;;;;;;4975080;28;20202;-84
2022/03/23 03:13:30;;;;;;;22.20;12.03;;;2.30;99.90;;;;;;4974901;28;20208;-84
2022/03/23 03:16:03;;;;;;;28.60;14.17;;;2.30;99.90;;;;;;4965472;28;20191;-82
2022/03/23 03:18:33;;;;;;;23.08;12.82;;;2.20;99.90;;;;;;4972879;28;20568;-82
2022/03/23 03:21:00;;;;;;;15.73;10.93;;;2.20;99.90;;;;;;4963752;28;20664;-82
2022/03/23 03:23:26;;;;;;;22.92;12.10;;;2.20;99.90;;;;;;4969710;28;20184;-83
2022/03/23 03:25:52;;;;;;;21.70;12.37;;;2.20;99.90;;;;;;4971936;28;20191;-83
2022/03/23 03:28:17;;;;;;;25.53;12.63;;;2.20;99.90;;;;;;4974684;28;20211;-83
2022/03/23 03:30:43;;;;;;;20.10;13.20;;;2.20;99.90;;;;;;4970526;28;20186;-83
2022/03/23 03:33:08;;;;;;;28.57;13.40;;;2.10;99.90;;;;;;4985825;28;20232;-83
2022/03/23 03:35:34;;;;;;;22.83;14.23;;;2.00;99.90;;;;;;4958210;28;20749;-83
2022/03/23 03:37:59;;;;;;;23.03;12.67;;;2.00;99.90;;;;;;4975207;28;20215;-83
2022/03/23 03:40:25;;;;;;;25.73;13.37;;;2.00;99.90;;;;;;4981660;28;20255;-83
2022/03/23 03:42:50;;;;;;;21.70;12.90;;;1.90;99.90;;;;;;4966294;28;20250;-83
2022/03/23 03:45:16;;;;;;;19.67;13.67;;;1.90;99.90;;;;;;4963654;28;20179;-83
2022/03/23 03:47:41;;;;;;;25.60;11.47;;;1.90;99.90;;;;;;4976986;28;20232;-84
2022/03/23 03:50:07;;;;;;;17.07;10.83;;;1.90;99.90;;;;;;4977803;28;20179;-84
2022/03/23 03:52:34;;;;;;;23.30;11.45;;;1.80;99.90;;;;;;4981312;28;20198;-84
2022/03/23 03:54:59;;;;;;;20.20;12.93;;;1.80;99.90;;;;;;4977584;28;20791;-84
2022/03/23 03:57:25;;;;;;;20.93;11.40;;;1.80;99.90;;;;;;4977430;28;20203;-83
2022/03/23 03:59:50;;;;;;;19.77;10.67;;;1.80;99.90;;;;;;4981827;28;20214;-83
2022/03/23 04:02:16;;;;;;;16.77;10.90;;;1.70;99.90;;;;;;4978403;28;20180;-83
2022/03/23 04:04:42;;;;;;;17.47;11.93;;;1.70;99.90;;;;;;4962628;28;20231;-83
2022/03/23 04:07:07;;;;;;;19.90;11.00;;;1.60;99.90;;;;;;4958025;28;20208;-83
2022/03/23 04:09:33;;;;;;;17.43;12.10;;;1.50;99.90;;;;;;4964867;29;20175;-84
2022/03/23 04:11:58;;;;;;;21.37;12.53;;;1.30;99.90;;;;;;4955044;28;20270;-84
2022/03/23 04:14:24;;;;;;;28.63;14.40;;;1.20;99.90;;;;;;4983297;28;20704;-84
2022/03/23 04:16:49;;;;;;;27.40;12.53;;;1.20;99.90;;;;;;4967702;28;20763;-83
2022/03/23 04:19:15;;;;;;;25.50;13.23;;;1.20;99.90;;;;;;4974387;28;20298;-83
2022/03/23 04:21:40;;;;;;;21.13;13.43;;;1.30;99.90;;;;;;4976278;28;20192;-84
2022/03/23 04:24:06;;;;;;;25.27;12.53;;;1.30;99.90;;;;;;4961767;28;20187;-84
2022/03/23 04:26:32;;;;;;;25.47;13.13;;;1.30;99.90;;;;;;4982813;28;20179;-84
2022/03/23 04:28:57;;;;;;;21.53;10.97;;;1.30;99.90;;;;;;4955381;28;20942;-84
2022/03/23 04:31:23;;;;;;;20.33;11.87;;;1.30;99.90;;;;;;4963664;28;21471;-84
2022/03/23 04:33:48;;;;;;;21.50;11.53;;;1.30;99.90;;;;;;4975108;28;20264;-83
2022/03/23 04:36:14;;;;;;;19.87;11.20;;;1.30;99.90;;;;;;4967016;28;20207;-84
2022/03/23 04:38:40;;;;;;;22.73;12.37;;;1.20;99.90;;;;;;4958531;28;20200;-84
2022/03/23 04:41:05;;;;;;;19.10;11.07;;;1.20;99.90;;;;;;4966014;28;20215;-84
2022/03/23 04:43:32;;;;;;;20.83;13.03;;;1.20;99.90;;;;;;4978163;28;20206;-84
2022/03/23 04:45:58;;;;;;;27.95;12.55;;;1.20;99.90;;;;;;4960387;28;20218;-84
2022/03/23 04:48:24;;;;;;;26.83;14.20;;;1.20;99.90;;;;;;4967730;28;20199;-82
2022/03/23 04:50:49;;;;;;;20.70;12.90;;;1.20;99.90;;;;;;4964348;28;20480;-85
2022/03/23 04:53:16;;;;;;;23.30;13.00;;;1.20;99.90;;;;;;4951889;28;21174;-84
2022/03/23 04:55:42;;;;;;;19.20;10.70;;;1.10;99.90;;;;;;4974180;28;20736;-84
2022/03/23 04:58:07;;;;;;;18.30;10.23;;;1.10;99.90;;;;;;4982658;28;20259;-85
2022/03/23 05:00:35;;;;;;;18.30;11.00;;;1.10;99.90;;;;;;4953446;28;20834;-83
2022/03/23 05:03:01;;;;;;;20.65;11.05;;;1.10;99.90;;;;;;4965504;28;20183;-83
2022/03/23 05:05:27;;;;;;;18.75;12.05;;;1.10;99.90;;;;;;4977975;28;20270;-83
2022/03/23 05:07:53;;;;;;;23.37;11.20;;;1.10;99.90;;;;;;4967156;28;20231;-83
2022/03/23 05:10:18;;;;;;;23.87;12.03;;;1.00;99.90;;;;;;4989971;28;20203;-83
2022/03/23 05:12:45;;;;;;;17.20;10.87;;;1.00;99.90;;;;;;4978524;28;20296;-83
2022/03/23 05:15:12;;;;;;;25.52;13.05;;;1.00;99.90;;;;;;4953224;28;20187;-83
2022/03/23 05:17:38;;;;;;;21.75;11.77;;;1.00;99.90;;;;;;4973468;28;20223;-84
2022/03/23 05:20:05;;;;;;;28.35;13.38;;;1.00;99.90;;;;;;4975340;28;20211;-84
2022/03/23 05:22:31;;;;;;;21.88;13.25;;;1.00;99.90;;;;;;4963588;28;20184;-85
2022/03/23 05:24:57;;;;;;;22.58;12.95;;;1.00;99.90;;;;;;4965009;28;20183;-83
2022/03/23 05:27:23;;;;;;;23.37;11.90;;;;;;;;;;4962872;28;20219;-83
2022/03/23 05:29:49;;;;;;;23.15;12.50;;;1.10;99.90;;;;;;4975841;28;20651;-83
2022/03/23 05:32:18;;;;;;;19.07;12.33;;;1.10;99.90;;;;;;4978653;28;20180;-84
2022/03/23 05:34:48;;;;;;;24.77;13.13;;;1.20;99.90;;;;;;4980687;28;20645;-82
2022/03/23 05:37:16;;;;;;;22.13;12.35;;;1.20;99.90;;;;;;4976470;28;20192;-83
2022/03/23 05:39:43;;;;;;;21.33;13.27;;;1.30;99.90;;;;;;4981028;28;20862;-84
2022/03/23 05:42:09;;;;;;;21.40;13.10;;;1.70;99.90;;;;;;4951194;28;20202;-83
2022/03/23 05:44:36;;;;;;;27.58;14.57;;;2.60;99.90;;;;;;4966718;28;20186;-85
2022/03/23 05:47:02;;;;;;;26.13;14.18;;;3.60;99.90;;;;;;4969174;28;20392;-84
2022/03/23 05:49:28;;;;;;;21.83;13.07;;;4.80;99.90;;;;;;4958306;28;20226;-83
2022/03/23 05:51:54;;;;;;;20.80;11.30;;;5.90;99.90;;;;;;4969496;28;20669;-84
2022/03/23 05:54:20;;;;;;;20.50;11.47;;;7.20;99.90;;;;;;4966986;28;20669;-83
2022/03/23 05:56:46;;;;;;;16.38;9.13;;;8.40;99.90;;;;;;4960975;28;20208;-84
2022/03/23 05:59:11;;;;;;;19.67;11.63;;;9.50;99.90;;;;;;4960272;28;20208;-84
2022/03/23 06:01:37;;;;;;;21.73;11.67;;;10.60;99.90;;;;;;4968102;28;20190;-84
2022/03/23 06:04:03;;;;;;;15.77;10.67;;;11.70;98.60;;;;;;4965863;28;20188;-85
2022/03/23 06:06:29;;;;;;;22.00;13.38;;;13.50;89.80;;;;;;4962352;28;20192;-84
2022/03/23 06:08:54;;;;;;;21.23;13.87;;;13.50;90.00;;;;;;4965117;28;20194;-85
2022/03/23 06:11:20;;;;;;;18.67;14.50;;;14.20;79.90;;;;;;4951470;28;20211;-85
2022/03/23 06:13:45;;;;;;;23.00;15.40;;;14.70;73.00;;;;;;4964600;28;20187;-84
2022/03/23 06:16:11;;;;;;;24.70;14.13;;;15.20;69.00;;;;;;4966577;28;20200;-85
2022/03/23 06:18:38;;;;;;;14.93;10.90;;;16.00;67.80;;;;;;4965823;28;20207;-85
2022/03/23 06:21:04;;;;;;;16.50;11.70;;;17.00;66.50;;;;;;4969762;28;20206;-85
2022/03/23 06:23:33;;;;;;;21.43;12.57;;;18.00;62.20;;;;;;4972111;28;20434;-84
2022/03/23 06:25:59;;;;;;;17.73;12.77;;;18.90;58.60;;;;;;4951797;28;20283;-84
2022/03/23 06:28:25;;;;;;;18.20;12.97;;;19.60;56.00;;;;;;4958689;28;20980;-87
2022/03/23 06:30:51;;;;;;;18.87;13.03;;;20.50;53.70;;;;;;4954095;28;20500;-85
2022/03/23 06:33:18;;;;;;;19.27;13.40;;;20.80;51.80;;;;;;4968667;28;20364;-85
2022/03/23 06:35:43;;;;;;;22.17;15.30;;;21.20;49.00;;;;;;4967934;28;20969;-85
2022/03/23 06:38:09;;;;;;;24.20;16.67;;;21.30;47.60;;;;;;4942918;28;20792;-85
2022/03/23 06:40:34;;;;;;;25.00;17.33;;;21.10;45.40;;;;;;4953116;28;20412;-86
2022/03/23 06:43:01;;;;;;;33.87;18.97;;;21.00;46.30;;;;;;4964156;28;20525;-85
2022/03/23 06:45:26;;;;;;;28.63;16.60;;;20.90;44.80;;;;;;4951189;28;20187;-86
2022/03/23 06:47:52;;;;;;;34.73;16.87;;;21.20;45.80;;;;;;4945970;28;20465;-86
2022/03/23 06:50:18;;;;;;;21.30;16.63;;;20.60;44.10;;;;;;4944294;28;20184;-86
2022/03/23 06:52:43;;;;;;;23.03;16.47;;;20.30;44.60;;;;;;4963825;28;20250;-84
2022/03/23 06:55:09;;;;;;;24.00;17.30;;;20.80;44.60;;;;;;4951237;28;20282;-85
2022/03/23 06:57:35;;;;;;;23.87;16.57;;;21.40;44.20;;;;;;4958962;28;20290;-84
2022/03/23 07:00:01;;;;;;;25.67;18.03;;;21.30;43.70;;;;;;4956748;28;20503;-83
2022/03/23 07:02:27;;;;;;;26.73;18.30;;;21.60;43.40;;;;;;4949464;28;20624;-85
2022/03/23 07:04:53;;;;;;;24.67;17.40;;;21.70;42.90;;;;;;4950754;28;20530;-86
2022/03/23 07:07:20;;;;;;;30.30;19.00;;;21.50;42.60;;;;;;4945030;28;20204;-85
2022/03/23 07:09:46;;;;;;;24.93;17.73;;;21.80;42.90;;;;;;4960058;28;20647;-85
2022/03/23 07:12:11;;;;;;;24.53;18.17;;;21.90;42.60;;;;;;4959676;28;20806;-86
2022/03/23 07:14:39;;;;;;;24.43;18.50;;;21.70;41.60;;;;;;4966120;28;20459;-85
2022/03/23 07:17:06;;;;;;;22.90;17.97;;;22.20;41.70;;;;;;4966569;28;20249;-85
2022/03/23 07:19:31;;;;;;;33.97;19.03;;;22.80;42.10;;;;;;4946552;28;20826;-86
2022/03/23 07:21:57;;;;;;;26.57;18.63;;;23.40;41.30;;;;;;4956923;28;20438;-85
2022/03/23 07:24:23;;;;;;;24.00;18.07;;;23.00;39.50;;;;;;4959758;28;20444;-85
2022/03/23 07:26:50;;;;;;;29.30;19.23;;;22.50;41.00;;;;;;4946106;28;20215;-85
2022/03/23 07:29:16;;;;;;;24.30;18.77;;;23.20;41.30;;;;;;4963677;28;20454;-85
2022/03/23 07:31:42;;;;;;;25.00;17.83;;;22.40;40.40;;;;;;4953285;28;20883;-85
2022/03/23 07:34:08;;;;;;;29.40;19.20;;;22.30;40.80;;;;;;4964243;28;20191;-85
2022/03/23 07:36:33;;;;;;;26.80;18.80;;;23.50;40.40;;;;;;4944179;28;21637;-86
2022/03/23 07:38:59;;;;;;;27.70;20.23;;;22.30;39.20;;;;;;4947407;28;20539;-85
2022/03/23 07:41:25;;;;;;;27.73;19.83;;;22.70;39.30;;;;;;4959720;28;20184;-85
2022/03/23 07:43:51;;;;;;;25.40;20.53;;;22.80;40.00;;;;;;4967848;28;20477;-84
2022/03/23 07:46:17;;;;;;;36.47;20.63;;;23.40;39.00;;;;;;4969142;28;20187;-83
2022/03/23 07:48:43;;;;;;;26.87;20.30;;;23.30;39.50;;;;;;4960395;28;20218;-85
2022/03/23 07:51:09;;;;;;;24.80;19.03;;;22.50;39.20;;;;;;4960697;28;20474;-85
2022/03/23 07:53:34;;;;;;;27.50;20.13;;;22.50;39.80;;;;;;4969498;28;20573;-86
2022/03/23 07:56:00;;;;;;;33.27;21.83;;;22.00;40.20;;;;;;4970465;28;20557;-86
2022/03/23 07:58:27;;;;;;;32.90;20.30;;;22.00;40.40;;;;;;4952330;28;20221;-85
2022/03/23 08:00:52;;;;;;;24.93;18.30;;;21.60;40.80;;;;;;4968803;28;20736;-85
2022/03/23 08:03:18;;;;;;;28.67;19.47;;;22.30;41.10;;;;;;4969191;28;20430;-84
2022/03/23 08:05:44;;;;;;;25.07;19.40;;;23.80;41.40;;;;;;4971373;28;20184;-86
2022/03/23 08:08:10;;;;;;;29.50;20.37;;;24.20;40.30;;;;;;4970305;28;20207;-84
2022/03/23 08:10:37;;;;;;;26.43;20.30;;;24.00;39.70;;;;;;4974092;28;20187;-85
2022/03/23 08:13:03;;;;;;;32.20;20.50;;;22.90;40.10;;;;;;4968365;28;20578;-85
2022/03/23 08:15:31;;;;;;;26.17;20.77;;;22.70;42.00;;;;;;4971009;28;20440;-85
2022/03/23 08:17:58;;;;;;;23.47;19.73;;;22.10;43.10;;;;;;4964922;28;20457;-86
2022/03/23 08:20:32;;;;;;;25.93;19.63;;;22.30;42.60;;;;;;4957261;28;20563;-84
2022/03/23 08:22:59;;;;;;;25.23;17.93;;;23.00;43.00;;;;;;4958603;28;21031;-83
2022/03/23 08:25:25;;;;;;;28.93;20.90;;;22.60;42.40;;;;;;4971425;28;20456;-84
2022/03/23 08:27:51;;;;;;;23.67;18.37;;;22.60;42.00;;;;;;4945725;28;20467;-86
2022/03/23 08:30:16;;;;;;;28.93;21.00;;;23.50;42.50;;;;;;4972600;28;20460;-85
2022/03/23 08:32:42;;;;;;;24.90;18.77;;;24.50;41.20;;;;;;4945615;28;20439;-86
2022/03/23 08:35:08;;;;;;;26.67;19.50;;;25.10;42.50;;;;;;4969448;28;20183;-86
2022/03/23 08:37:34;;;;;;;32.13;20.57;;;25.90;41.20;;;;;;4978304;28;20573;-86
2022/03/23 08:39:59;;;;;;;28.50;20.30;;;25.90;39.30;;;;;;4961969;28;20467;-85
2022/03/23 08:42:25;;;;;;;24.33;20.13;;;25.30;39.50;;;;;;4969473;28;20254;-84
2022/03/23 08:44:52;;;;;;;27.40;19.30;;;24.70;41.50;;;;;;4969566;28;20188;-84
2022/03/23 08:47:17;;;;;;;28.60;20.67;;;24.10;41.30;;;;;;4968980;28;21059;-85
2022/03/23 08:49:43;;;;;;;29.53;21.43;;;24.80;40.70;;;;;;4954848;28;20435;-87
2022/03/23 08:52:09;;;;;;;27.40;20.43;;;25.60;41.20;;;;;;4970944;28;20204;-85
2022/03/23 08:54:35;;;;;;;29.03;21.03;;;25.40;40.80;;;;;;4969203;28;20900;-86
2022/03/23 08:57:00;;;;;;;29.37;20.43;;;25.10;40.80;;;;;;4965302;28;20219;-86
2022/03/23 08:59:26;;;;;;;30.33;22.20;;;24.60;41.50;;;;;;4970425;28;20207;-85
2022/03/23 09:01:51;;;;;;;28.53;20.40;;;23.90;41.80;;;;;;4972763;28;20183;-86
2022/03/23 09:04:17;;;;;;;33.20;22.90;;;24.00;41.30;;;;;;4967854;28;20190;-87
2022/03/23 09:06:43;;;;;;;29.93;21.90;;;23.90;41.10;;;;;;4973667;28;20949;-87
2022/03/23 09:09:09;;;;;;;30.77;22.30;;;25.00;40.80;;;;;;4968320;28;20220;-86
2022/03/23 09:11:35;;;;;;;31.73;22.07;;;25.50;41.30;;;;;;4967767;28;20434;-87
2022/03/23 09:14:01;;;;;;;29.10;22.07;;;25.70;39.90;;;;;;4967956;28;20853;-87
2022/03/23 09:16:26;;;;;;;25.80;20.23;;;26.10;38.40;;;;;;4955132;28;20184;-85
2022/03/23 09:18:52;;;;;;;30.17;20.23;;;26.00;38.80;;;;;;4954373;28;20185;-87
2022/03/23 09:21:18;;;;;;;26.90;20.50;;;26.00;39.30;;;;;;4942188;28;20569;-87
2022/03/23 09:23:43;;;;;;;32.80;23.40;;;27.00;38.90;;;;;;4970166;28;20192;-86
2022/03/23 09:26:10;;;;;;;27.90;21.00;;;27.00;37.50;;;;;;4970038;28;20284;-86
2022/03/23 09:28:36;;;;;;;34.43;21.27;;;;;;;;;;4972049;28;20294;-86
2022/03/23 09:31:02;;;;;;;26.87;22.30;;;;;;;;;;4974211;28;20937;-86
2022/03/23 09:33:28;;;;;;;32.60;24.70;;;26.40;36.30;;;;;;4972672;28;20465;-88
2022/03/23 09:35:54;;;;;;;30.17;23.90;;;;;;;;;;4966440;28;20450;-87
2022/03/23 09:38:20;;;;;;;29.63;23.10;;;;;;;;;;4942924;28;20209;-85
2022/03/23 09:40:50;;;;;;;25.57;22.40;;;27.20;36.90;;;;;;4945166;28;20464;-86
2022/03/23 09:43:19;;;;;;;42.70;23.40;;;26.40;38.10;;;;;;4968689;28;20445;-86
2022/03/23 09:45:47;;;;;;;28.43;22.43;;;26.20;37.40;;;;;;4973730;28;20438;-88
2022/03/23 09:48:20;;;;;;;31.20;23.27;;;27.00;37.70;;;;;;4964463;28;20492;-87
2022/03/23 09:50:49;;;;;;;30.27;22.70;;;27.40;37.60;;;;;;4960163;28;20446;-87
2022/03/23 09:53:15;;;;;;;28.13;22.90;;;26.40;38.00;;;;;;4961476;28;20947;-87
2022/03/23 09:55:42;;;;;;;35.53;24.17;;;26.00;39.00;;;;;;4967916;28;20452;-87
2022/03/23 09:58:08;;;;;;;32.53;22.10;;;24.80;40.80;;;;;;4965461;28;20208;-87
2022/03/23 10:00:39;;;;;;;31.60;22.33;;;24.00;40.80;;;;;;4965576;28;20895;-87
2022/03/23 10:03:15;;;;;;;25.63;21.70;;;24.70;40.50;;;;;;4961620;28;20239;-87
2022/03/23 10:06:14;;;;;;;33.20;21.77;;;24.70;40.20;;;;;;4964205;28;20850;-87
2022/03/23 10:08:58;;;;;;;34.47;23.50;;;24.80;40.50;;;;;;4963048;28;20456;-87
2022/03/23 10:12:14;;;;;;;30.87;21.43;;;26.20;38.50;;;;;;4954937;28;20434;-85
2022/03/23 10:15:20;;;;;;;34.57;22.17;;;25.20;39.30;;;;;;4943559;28;20434;-84
2022/03/23 10:17:53;;;;;;;31.10;21.70;;;22.40;41.00;;;;;;4959917;28;20465;-86
2022/03/23 10:20:18;;;;;;;31.10;20.40;;;20.60;43.70;;;;;;4961438;28;21153;-87
2022/03/23 10:22:48;;;;;;;34.00;20.90;;;19.80;44.60;;;;;;4964794;28;20460;-86
2022/03/23 10:25:15;;;;;;;35.37;21.53;;;19.00;46.10;;;;;;4952424;28;20434;-86
2022/03/23 10:27:43;;;;;;;32.73;21.53;;;18.70;46.40;;;;;;4970231;28;20979;-85
2022/03/23 10:30:09;;;;;;;28.00;21.23;;;18.40;46.50;;;;;;4968124;28;20540;-85
2022/03/23 10:32:41;;;;;;;27.93;21.03;;;17.90;46.70;;;;;;4953711;28;20922;-88
2022/03/23 10:35:14;;;;;;;31.10;22.10;;;17.60;48.20;;;;;;4968588;28;20439;-85
2022/03/23 10:37:41;;;;;;;26.00;20.30;;;17.40;47.50;;;;;;4957822;28;20475;-86
2022/03/23 10:40:10;;;;;;;28.30;18.87;;;17.00;49.50;;;;;;4955869;28;20467;-87
2022/03/23 10:42:39;;;;;;;28.47;19.30;;;17.10;47.90;;;;;;4958274;28;20522;-86
2022/03/23 10:45:20;;;;;;;37.07;20.20;;;17.10;48.00;;;;;;4956014;28;20439;-86
2022/03/23 10:47:46;;;;;;;30.23;19.30;;;17.20;48.00;;;;;;4945787;28;20459;-85
2022/03/23 10:50:23;;;;;;;25.80;18.97;;;17.10;47.00;;;;;;4956658;28;20473;-87
2022/03/23 10:53:04;;;;;;;25.40;17.23;;;17.30;46.30;;;;;;4971279;28;20493;-86
2022/03/23 10:55:32;;;;;;;24.87;17.17;;;17.50;44.10;;;;;;4974819;28;20450;-86
2022/03/23 10:58:01;;;;;;;21.00;16.70;;;17.60;44.00;;;;;;4953659;28;20470;-85
2022/03/23 11:00:34;;;;;;;29.20;18.73;;;17.60;44.20;;;;;;4945436;28;21007;-87
2022/03/23 11:03:01;;;;;;;22.20;17.13;;;17.50;44.90;;;;;;4948164;28;20470;-86
2022/03/23 11:05:31;;;;;;;27.07;17.23;;;17.60;44.90;;;;;;4973434;28;22294;-88
2022/03/23 11:08:13;;;;;;;22.67;16.00;;;17.80;42.80;;;;;;4959871;28;20457;-86
2022/03/23 11:16:44;;;;;;;16.50;14.60;;;18.00;37.00;;;;;;4971220;28;20443;-87
2022/03/23 11:19:20;;;;;;;17.40;13.90;;;18.00;37.30;;;;;;4961180;28;20434;-85
2022/03/23 11:22:06;;;;;;;19.93;14.53;;;18.20;39.70;;;;;;4973835;28;20434;-87
2022/03/23 11:24:36;;;;;;;18.23;15.00;;;18.30;38.80;;;;;;4974591;28;20459;-85
2022/03/23 11:27:06;;;;;;;19.73;14.30;;;18.40;36.80;;;;;;4971362;28;21055;-85
2022/03/23 11:29:33;;;;;;;19.93;16.57;;;18.60;37.40;;;;;;4963160;28;20439;-87
2022/03/23 11:32:07;;;;;;;14.50;13.00;;;18.90;35.80;;;;;;4972777;28;21170;-86
2022/03/23 11:34:37;;;;;;;16.53;12.60;;;18.90;36.20;;;;;;4972247;28;21054;-86
2022/03/23 11:37:06;;;;;;;16.97;13.60;;;19.20;36.40;;;;;;4971664;28;20463;-88
2022/03/23 11:39:33;;;;;;;17.23;13.10;;;19.30;34.80;;;;;;4961657;28;20458;-86
2022/03/23 11:42:02;;;;;;;20.00;14.90;;;19.30;33.90;;;;;;4959484;28;20438;-85
2022/03/23 11:44:27;;;;;;;20.30;15.57;;;19.20;34.30;;;;;;4972560;28;20432;-87
2022/03/23 11:47:01;;;;;;;16.10;13.97;;;19.10;33.70;;;;;;4970572;28;20449;-88
2022/03/23 11:50:05;;;;;;;16.97;12.90;;;19.00;34.20;;;;;;4972640;28;20216;-87
2022/03/23 11:52:51;;;;;;;22.80;14.73;;;19.10;31.30;;;;;;4974620;28;20433;-87
2022/03/23 11:55:37;;;;;;;14.80;13.20;;;19.10;32.80;;;;;;4976365;28;20471;-87
2022/03/23 11:58:23;;;;;;;20.47;14.73;;;19.20;33.70;;;;;;4972774;28;20461;-87
2022/03/23 12:01:05;;;;;;;20.17;13.70;;;19.30;33.60;;;;;;4978810;28;21009;-86
2022/03/23 12:03:40;;;;;;;17.90;13.57;;;19.20;33.00;;;;;;4975500;28;21580;-89
2022/03/23 12:06:14;;;;;;;16.10;13.67;;;18.90;33.60;;;;;;4953918;28;20432;-86
2022/03/23 12:08:48;;;;;;;17.27;13.77;;;18.70;34.00;;;;;;4958919;28;20474;-85
2022/03/23 12:11:32;;;;;;;14.50;11.50;;;19.00;34.10;;;;;;4959056;28;20443;-85
2022/03/23 12:13:59;;;;;;;16.57;13.07;;;19.20;31.90;;;;;;4974309;28;20447;-86
2022/03/23 12:16:57;;;;;;;15.40;13.40;;;19.50;32.90;;;;;;4976291;28;21005;-86
2022/03/23 12:19:28;;;;;;;17.93;15.50;;;19.50;33.00;;;;;;4927217;28;20501;-86
2022/03/23 12:22:05;;;;;;;14.40;12.90;;;19.70;32.10;;;;;;4981741;28;20447;-86
2022/03/23 12:25:08;;;;;;;17.33;14.57;;;19.80;31.90;;;;;;4975844;28;20429;-86
2022/03/23 12:27:34;;;;;;;17.43;14.10;;;19.90;31.30;;;;;;4971406;28;20478;-87
2022/03/23 12:30:07;;;;;;;23.67;15.80;;;19.90;32.00;;;;;;4975051;28;20514;-86
2022/03/23 12:32:38;;;;;;;20.27;15.90;;;19.60;32.20;;;;;;4977536;28;20460;-86
2022/03/23 12:35:04;;;;;;;18.17;14.77;;;19.50;33.80;;;;;;4976916;28;20435;-87
2022/03/23 12:37:43;;;;;;;17.80;13.60;;;19.50;33.90;;;;;;4976834;28;20467;-89
2022/03/23 12:40:13;;;;;;;20.67;12.70;;;19.30;33.90;;;;;;4972637;28;20942;-86
2022/03/23 12:42:46;;;;;;;18.17;12.90;;;19.10;32.90;;;;;;4961862;28;20430;-86
2022/03/23 12:45:19;;;;;;;15.40;12.70;;;19.10;32.20;;;;;;4958742;28;20521;-85
2022/03/23 12:59:18;;;;;;;19.33;13.30;;;19.20;32.70;;;;;;4974465;28;20419;-86
2022/03/23 13:01:45;;;;;;;13.40;10.90;;;19.10;31.80;;;;;;4974658;28;21219;-87
2022/03/23 13:04:47;;;;;;;17.80;11.97;;;19.00;32.40;;;;;;4974850;28;20771;-86
2022/03/23 13:07:28;;;;;;;12.00;10.33;;;19.20;32.10;;;;;;4972802;28;20463;-86
2022/03/23 13:10:04;;;;;;;29.73;18.57;;;19.00;32.80;;;;;;4951362;28;20426;-86